Time;durP1;ratioP1;P1;durP2;ratioP2;P2;SDS_P1;SDS_P2;PMS_P1;PMS_P2;Temp;Humidity;BMP_temperature;BMP_pressure;BME280_temperature;BME280_humidity;BME280_pressure;Samples;Min_cycle;Max_cycle;Signal;HPM_P1;HPM_P2
2022/12/29 00:01:30;;;;;;;30.03;13.40;;;;;;;-141.97;88.09;47780.47;5035237;28;20769;-82
2022/12/29 00:03:55;;;;;;;32.67;14.23;;;;;;;-141.97;88.11;47792.03;5035081;28;20193;-81
2022/12/29 00:06:21;;;;;;;45.43;19.77;;;;;;;-141.97;87.81;47761.25;5034263;28;20432;-82
2022/12/29 00:08:46;;;;;;;39.67;16.97;;;;;;;-141.97;88.83;47765.09;5034356;28;20212;-81
2022/12/29 00:11:24;;;;;;;43.20;18.33;;;;;;;-141.97;88.83;47743.97;5033861;28;20162;-81
2022/12/29 00:16:35;;;;;;;53.77;24.50;;;;;;;-141.97;89.13;47763.19;5033916;28;20977;-81
2022/12/29 00:19:01;;;;;;;75.10;31.90;;;;;;;-141.97;88.84;47770.88;5034311;28;20396;-81
2022/12/29 00:35:20;;;;;;;48.00;23.77;;;;;;;-141.97;87.10;47749.72;5032726;28;20470;-82
2022/12/29 00:45:59;;;;;;;52.73;26.60;;;;;;;-141.97;85.36;47788.19;5033344;28;20579;-82
2022/12/29 00:51:08;;;;;;;49.13;24.07;;;;;;;-141.97;85.05;47757.41;5032870;28;20728;-81
2022/12/29 00:53:34;;;;;;;48.67;23.53;;;;;;;-141.97;85.22;47742.03;5032617;28;20409;-81
2022/12/29 00:56:00;;;;;;;46.57;23.17;;;;;;;-141.97;85.91;47745.88;5032744;28;20547;-81
2022/12/29 00:58:29;;;;;;;47.03;23.40;;;;;;;-141.97;85.48;47788.19;5014428;28;20646;-82
2022/12/29 01:01:06;;;;;;;45.90;23.43;;;;;;;-141.97;85.06;47757.41;5032636;28;20162;-81
2022/12/29 01:03:32;;;;;;;50.60;24.13;;;;;;;-141.97;85.38;47763.19;5032317;28;20404;-82
2022/12/29 01:06:01;;;;;;;50.17;24.17;;;;;;;-141.97;85.11;47749.72;5032496;28;20447;-81
2022/12/29 01:08:28;;;;;;;50.57;23.03;;;;;;;-141.97;85.59;47776.63;5032373;28;20495;-81
2022/12/29 01:11:22;;;;;;;46.50;21.97;;;;;;;-141.97;85.76;47788.19;5032339;28;20495;-81
2022/12/29 01:13:48;;;;;;;44.97;22.10;;;;;;;-141.97;84.85;47747.81;4988413;28;20946;-82
2022/12/29 01:16:13;;;;;;;41.97;20.07;;;;;;;-141.97;84.61;47803.56;4988771;28;20449;-80
2022/12/29 01:18:38;;;;;;;40.87;20.67;;;;;;;-141.97;85.62;47765.09;4990640;28;20218;-80
2022/12/29 01:21:05;;;;;;;38.67;19.23;;;;;;;-141.97;85.32;47778.56;4986766;28;20191;-81
2022/12/29 01:23:32;;;;;;;42.50;20.23;;;;;;;-141.97;85.24;47807.41;4989366;28;20302;-81
2022/12/29 01:26:07;;;;;;;37.90;19.73;;;;;;;-141.97;85.59;47732.44;4988870;28;20455;-81
2022/12/29 01:28:33;;;;;;;39.43;20.33;;;;;;;-141.97;85.27;47761.25;4987398;28;20410;-81
2022/12/29 01:31:00;;;;;;;40.33;19.87;;;;;;;-141.97;85.48;47728.59;4988681;28;20433;-82
2022/12/29 01:33:26;;;;;;;35.73;19.83;;;;;;;-141.97;85.09;47761.25;4986568;28;20178;-82
2022/12/29 01:35:51;;;;;;;37.37;20.30;;;;;;;-141.97;84.84;47782.41;4989275;28;20407;-81
2022/12/29 01:38:16;;;;;;;42.97;21.63;;;;;;;-141.97;84.94;47782.41;4988791;28;20230;-81
2022/12/29 01:40:46;;;;;;;43.73;22.50;;;;;;;-141.97;84.84;47742.03;4988905;28;20664;-81
2022/12/29 01:43:13;;;;;;;42.73;22.17;;;;;;;-141.97;84.96;47755.50;4989387;28;20251;-82
2022/12/29 01:45:44;;;;;;;45.70;22.43;;;;;;;-141.97;85.11;47788.19;4988917;28;20462;-81
2022/12/29 01:48:10;;;;;;;48.40;23.53;;;;;;;-141.97;84.14;47768.94;4988634;28;20497;-81
2022/12/29 01:50:41;;;;;;;49.40;23.13;;;;;;;-141.97;84.11;47726.66;5017384;28;20420;-81
2022/12/29 01:53:13;;;;;;;44.60;22.97;;;;;;;-141.97;84.33;47776.63;5031172;28;20924;-81
2022/12/29 01:55:54;;;;;;;44.47;23.03;;;;;;;-141.97;84.20;47788.19;5031042;28;20685;-81
2022/12/29 01:58:24;;;;;;;45.63;23.07;;;;;;;-141.97;84.01;47759.34;5031091;28;20495;-81
2022/12/29 02:00:49;;;;;;;42.77;23.37;;;;;;;-141.97;84.37;47743.97;5026304;28;20612;-81
2022/12/29 02:03:17;;;;;;;53.33;24.80;;;;;;;-141.97;85.42;47726.66;5011040;28;20981;-81
2022/12/29 02:05:59;;;;;;;47.53;23.77;;;;;;;-141.97;85.45;47767.03;5010727;28;20189;-82
2022/12/29 02:08:27;;;;;;;46.57;24.17;;;;;;;-141.97;84.98;47803.56;5010976;28;20399;-81
2022/12/29 02:10:53;;;;;;;45.87;23.53;;;;;;;-141.97;84.37;47761.25;5011378;28;20489;-81
2022/12/29 02:13:19;;;;;;;48.23;23.17;;;;;;;-141.97;83.89;47790.09;5012033;28;20443;-81
2022/12/29 02:16:09;;;;;;;48.30;23.37;;;;;;;-141.97;84.12;47801.63;5011776;28;20430;-81
2022/12/29 02:18:40;;;;;;;48.43;23.63;;;;;;;-141.97;84.49;47772.78;5018891;28;20166;-81
2022/12/29 02:21:37;;;;;;;47.77;24.23;;;;;;;-141.97;84.74;47780.47;5011850;28;20410;-81
2022/12/29 02:24:23;;;;;;;46.07;23.03;;;;;;;-141.97;84.97;47755.50;5011594;28;20429;-82
2022/12/29 02:27:04;;;;;;;51.60;24.27;;;;;;;-141.97;85.27;47832.38;5011657;28;20397;-81
2022/12/29 02:29:54;;;;;;;48.30;23.47;;;;;;;-141.97;85.50;47784.34;5011673;28;20416;-81
2022/12/29 02:32:22;;;;;;;50.17;24.17;;;;;;;-141.97;87.27;47805.47;5010553;28;20410;-80
2022/12/29 02:35:09;;;;;;;49.40;24.37;;;;;;;-141.97;87.92;47803.56;5010183;28;20410;-82
2022/12/29 02:37:40;;;;;;;54.23;23.87;;;;;;;-141.97;88.17;47803.56;5011664;28;21003;-81
2022/12/29 02:40:11;;;;;;;49.37;23.97;;;;;;;-141.97;87.96;47742.03;5011854;28;20408;-81
2022/12/29 02:42:41;;;;;;;57.13;25.37;;;;;;;-141.97;87.90;47784.34;5012233;28;20899;-80
2022/12/29 02:45:36;;;;;;;51.53;24.93;;;;;;;-141.97;89.60;47776.63;5012259;28;20453;-82
2022/12/29 02:48:10;;;;;;;53.17;25.70;;;;;;;-141.97;89.48;47807.41;5011805;28;20398;-81
2022/12/29 02:50:44;;;;;;;51.20;24.53;;;;;;;-141.97;89.83;47763.19;5011604;28;20473;-81
2022/12/29 02:53:13;;;;;;;52.13;24.70;;;;;;;-141.97;89.71;47749.72;5011425;28;20803;-83
2022/12/29 02:55:41;;;;;;;51.77;25.70;;;;;;;-141.97;90.22;47782.41;5013479;28;20401;-81
2022/12/29 02:58:26;;;;;;;49.93;24.10;;;;;;;-141.97;89.41;47784.34;5019531;28;20412;-82
2022/12/29 03:01:15;;;;;;;53.43;25.30;;;;;;;-141.97;89.42;47770.88;5016180;28;20441;-81
2022/12/29 03:04:14;;;;;;;58.40;27.50;;;;;;;-141.97;89.50;47772.78;4993211;28;20421;-81
2022/12/29 03:07:02;;;;;;;93.23;39.87;;;;;;;-141.97;88.96;47809.31;4993443;28;20415;-81
2022/12/29 03:09:34;;;;;;;89.23;35.83;;;;;;;-141.97;88.82;47778.56;4993509;28;20492;-81
2022/12/29 03:18:25;;;;;;;72.03;32.90;;;;;;;-141.97;89.58;47792.03;4992889;28;20422;-80
2022/12/29 03:20:56;;;;;;;72.67;34.03;;;;;;;-141.97;89.82;47786.25;4992720;28;20499;-82
2022/12/29 03:23:25;;;;;;;67.73;31.83;;;;;;;-141.97;89.95;47792.03;4992996;28;20950;-80
2022/12/29 03:25:55;;;;;;;74.70;36.17;;;;;;;-141.97;90.81;47742.03;4993639;28;20468;-80
2022/12/29 03:28:34;;;;;;;77.33;36.67;;;;;;;-141.97;91.46;47738.19;5000065;28;20934;-82
2022/12/29 03:31:02;;;;;;;151.20;66.40;;;;;;;-141.97;92.35;47753.56;5010743;28;20433;-81
2022/12/29 03:33:30;;;;;;;91.23;40.60;;;;;;;-141.97;92.42;47782.41;5015099;28;20426;-80
2022/12/29 03:36:02;;;;;;;98.50;44.07;;;;;;;-141.97;93.83;47784.34;5018924;28;21063;-80
2022/12/29 03:38:36;;;;;;;74.03;33.77;;;;;;;-141.97;94.06;47749.72;4994471;28;20565;-80
2022/12/29 03:41:07;;;;;;;67.30;31.57;;;;;;;-141.97;93.39;47765.09;5008211;28;20955;-83
2022/12/29 03:43:33;;;;;;;73.60;32.23;;;;;;;-141.97;93.76;47742.03;5017161;28;20410;-81
2022/12/29 03:45:58;;;;;;;78.80;33.77;;;;;;;-141.97;94.22;47776.63;5019291;28;20540;-83
2022/12/29 03:48:24;;;;;;;73.50;33.07;;;;;;;-141.97;94.32;47742.03;5024259;28;20443;-82
2022/12/29 03:50:49;;;;;;;97.47;41.10;;;;;;;-141.97;94.61;47745.88;5037610;28;20188;-82
2022/12/29 03:53:14;;;;;;;83.07;35.60;;;;;;;-141.97;96.45;47799.72;5038936;28;20175;-81
2022/12/29 03:55:40;;;;;;;70.87;31.87;;;;;;;-141.97;97.04;47751.66;5023878;28;20336;-82
2022/12/29 03:58:05;;;;;;;67.93;31.83;;;;;;;-141.97;97.23;47770.88;5016140;28;20163;-81
2022/12/29 04:00:31;;;;;;;98.83;39.43;;;;;;;-141.97;98.32;47749.72;5015536;28;20167;-81
2022/12/29 04:02:56;;;;;;;77.33;34.37;;;;;;;-141.97;97.85;47749.72;5015118;28;20174;-81
2022/12/29 04:05:22;;;;;;;75.47;32.27;;;;;;;-141.97;97.91;47757.41;5014672;28;20269;-82
2022/12/29 04:07:47;;;;;;;71.70;31.43;;;;;;;-141.97;97.64;47767.03;5014511;28;20166;-82
2022/12/29 04:10:13;;;;;;;62.00;29.37;;;;;;;-141.97;97.56;47740.13;5013261;28;20165;-82
2022/12/29 04:12:38;;;;;;;71.37;30.93;;;;;;;-141.97;97.79;47742.03;5029217;28;20758;-83
2022/12/29 04:15:05;;;;;;;71.80;32.70;;;;;;;-141.97;97.59;47751.66;5028122;28;20640;-81
2022/12/29 04:17:30;;;;;;;69.47;32.23;;;;;;;-141.97;97.69;47826.63;5053756;28;20158;-82
2022/12/29 04:20:59;;;;;;;67.73;29.93;;;;;;;-141.97;97.25;47822.78;5035539;28;20776;-81
2022/12/29 04:22:41;;;;;;;67.17;31.10;;;;;;;-141.97;97.66;47784.34;5053372;28;20612;-81
2022/12/29 04:25:06;;;;;;;67.73;31.87;;;;;;;-141.97;97.42;47763.19;5052146;28;20452;-82
2022/12/29 04:27:32;;;;;;;66.90;31.93;;;;;;;-141.97;97.68;47768.94;5053710;28;20157;-82
2022/12/29 04:29:57;;;;;;;77.93;34.47;;;;;;;-141.97;97.76;47768.94;5053470;28;20165;-82
2022/12/29 04:32:23;;;;;;;107.33;45.23;;;;;;;-141.97;97.42;47772.78;5053228;28;20165;-83
2022/12/29 04:34:48;;;;;;;152.27;56.33;;;;;;;-141.97;98.01;47849.69;5053327;28;20173;-81
2022/12/29 04:37:13;;;;;;;169.10;62.77;;;;;;;-141.97;97.91;47803.56;5052905;28;20224;-81
2022/12/29 04:39:39;;;;;;;139.63;56.60;;;;;;;-141.97;97.88;47803.56;5052960;28;20638;-82
2022/12/29 04:42:04;;;;;;;134.03;56.33;;;;;;;-141.97;98.22;47749.72;5053230;28;20614;-82
2022/12/29 04:44:30;;;;;;;113.67;45.93;;;;;;;-141.97;97.60;47767.03;5053095;28;20207;-82
2022/12/29 04:46:55;;;;;;;97.57;42.73;;;;;;;-141.97;98.19;47767.03;5053086;28;20248;-82
2022/12/29 04:49:20;;;;;;;95.67;41.30;;;;;;;-141.97;98.51;47768.94;5051889;28;20192;-82
2022/12/29 04:51:46;;;;;;;103.53;43.40;;;;;;;-141.97;97.82;47742.03;5052689;28;20214;-83
2022/12/29 04:54:11;;;;;;;75.63;32.23;;;;;;;-141.97;97.10;47797.78;5052487;28;20190;-82
2022/12/29 04:56:36;;;;;;;67.57;30.77;;;;;;;-141.97;97.47;47815.09;5052798;28;20313;-82
2022/12/29 04:59:02;;;;;;;67.90;29.73;;;;;;;-141.97;97.89;47745.88;5052588;28;20606;-81
2022/12/29 05:01:27;;;;;;;67.57;30.30;;;;;;;-141.97;98.43;47767.03;5034631;28;20173;-82
2022/12/29 05:03:53;;;;;;;103.83;45.07;;;;;;;-141.97;98.32;47684.38;5052503;28;20251;-82
2022/12/29 05:06:18;;;;;;;93.13;40.33;;;;;;;-141.97;98.86;47768.94;5052723;28;20247;-82
2022/12/29 05:08:44;;;;;;;74.50;34.93;;;;;;;-141.97;100.00;47768.94;5053854;28;20158;-82
2022/12/29 05:11:09;;;;;;;68.13;29.57;;;;;;;-141.97;100.00;47792.03;5053360;28;20165;-85
2022/12/29 05:13:34;;;;;;;68.90;30.77;;;;;;;-141.97;100.00;47743.97;5053413;28;20246;-83
2022/12/29 05:16:00;;;;;;;99.87;44.63;;;;;;;-141.97;100.00;47722.81;5053449;28;20522;-84
2022/12/29 05:18:25;;;;;;;86.33;38.60;;;;;;;-141.97;100.00;47680.53;5052854;28;20165;-82
2022/12/29 05:20:50;;;;;;;236.20;74.77;;;;;;;-141.97;100.00;47730.50;5052437;28;20157;-82
2022/12/29 05:23:16;;;;;;;217.30;74.90;;;;;;;-141.97;100.00;47761.25;5052518;28;20291;-82
2022/12/29 05:25:43;;;;;;;152.77;54.80;;;;;;;-141.97;100.00;47772.78;5052280;28;20234;-82
2022/12/29 05:28:08;;;;;;;192.33;72.37;;;;;;;-141.97;100.00;47753.56;5055072;28;20178;-83
2022/12/29 05:30:33;;;;;;;145.73;56.97;;;;;;;-141.97;100.00;47824.69;5057848;28;20935;-83
2022/12/29 05:32:59;;;;;;;88.37;37.03;;;;;;;-141.97;100.00;47842.00;5053994;28;20170;-85
2022/12/29 05:35:24;;;;;;;81.57;36.70;;;;;;;-141.97;100.00;47759.34;5051270;28;20166;-82
2022/12/29 05:37:49;;;;;;;86.73;37.00;;;;;;;-141.97;100.00;47765.09;5052741;28;20225;-83
2022/12/29 05:40:15;;;;;;;117.47;47.37;;;;;;;-141.97;100.00;47713.22;5053145;28;20179;-86
2022/12/29 05:42:40;;;;;;;95.13;41.53;;;;;;;-141.97;100.00;47793.94;5053220;28;20165;-84
2022/12/29 05:45:07;;;;;;;97.87;39.67;;;;;;;-141.97;100.00;47761.25;5052774;28;20661;-83
2022/12/29 05:47:33;;;;;;;83.90;37.67;;;;;;;-141.97;100.00;47803.56;5052128;28;20192;-81
2022/12/29 05:49:58;;;;;;;82.93;35.37;;;;;;;-141.97;100.00;47801.63;5050740;28;20418;-81
2022/12/29 05:52:42;;;;;;;90.67;36.27;;;;;;;-141.97;100.00;47805.47;5052569;28;20406;-82
2022/12/29 05:55:08;;;;;;;96.77;41.17;;;;;;;-141.97;100.00;47776.63;5051922;28;20169;-81
2022/12/29 05:57:33;;;;;;;91.33;39.17;;;;;;;-141.97;100.00;47778.56;5051461;28;20403;-81
2022/12/29 05:59:59;;;;;;;92.17;38.63;;;;;;;-141.97;100.00;47801.63;5051665;28;20167;-81
2022/12/29 06:02:24;;;;;;;95.63;42.07;;;;;;;-141.97;100.00;47815.09;5051645;28;20188;-82
2022/12/29 06:04:49;;;;;;;93.40;40.67;;;;;;;-141.97;100.00;47784.34;5052192;28;20189;-81
2022/12/29 06:07:15;;;;;;;88.90;39.33;;;;;;;-141.97;100.00;47807.41;5052330;28;20636;-82
2022/12/29 06:09:40;;;;;;;87.10;38.37;;;;;;;-141.97;100.00;47759.34;5051127;28;20165;-83
2022/12/29 06:12:06;;;;;;;84.23;36.60;;;;;;;-141.97;100.00;47830.47;5052790;28;20546;-83
2022/12/29 06:14:31;;;;;;;87.73;38.23;;;;;;;-141.97;100.00;47770.88;5053300;28;20168;-83
2022/12/29 06:16:57;;;;;;;118.30;49.73;;;;;;;-141.97;100.00;47768.94;5033855;28;20539;-81
2022/12/29 06:19:22;;;;;;;144.07;59.30;;;;;;;-141.97;100.00;47776.63;5052687;28;20161;-82
2022/12/29 06:21:47;;;;;;;147.83;64.47;;;;;;;-141.97;100.00;47768.94;5040926;28;20170;-81
2022/12/29 06:24:13;;;;;;;245.50;94.07;;;;;;;-141.97;100.00;47792.03;5012917;28;20163;-81
2022/12/29 06:26:39;;;;;;;575.60;277.27;;;;;;;-141.97;100.00;47784.34;5013542;28;20170;-83
2022/12/29 06:29:07;;;;;;;424.57;153.07;;;;;;;-141.97;100.00;47797.78;5013774;28;20229;-83
2022/12/29 06:31:33;;;;;;;397.13;143.60;;;;;;;-141.97;100.00;47795.88;5012057;28;20473;-82
2022/12/29 06:33:58;;;;;;;321.20;121.50;;;;;;;-141.97;97.45;47811.25;5014627;28;20408;-81
2022/12/29 06:36:24;;;;;;;289.93;112.07;;;;;;;-141.97;92.53;47736.28;5016835;28;20551;-82
2022/12/29 06:38:52;;;;;;;307.17;122.10;;;;;;;-141.97;88.37;47786.25;5023438;28;20279;-82
2022/12/29 06:41:17;;;;;;;318.77;128.77;;;;;;;-141.97;85.53;47757.41;5034874;28;20168;-82
2022/12/29 06:43:43;;;;;;;247.93;110.23;;;;;;;-141.97;84.87;47772.78;5036225;28;20408;-82
2022/12/29 06:46:08;;;;;;;214.60;90.27;;;;;;;-141.97;85.15;47793.94;5037461;28;20208;-82
2022/12/29 06:48:34;;;;;;;143.40;59.40;;;;;;;-141.97;85.30;47815.09;5036181;28;20659;-82
2022/12/29 06:50:59;;;;;;;146.97;63.17;;;;;;;-141.97;86.87;47738.19;5035481;28;20174;-81
2022/12/29 06:53:25;;;;;;;106.50;48.17;;;;;;;-141.97;86.72;47722.81;5036693;28;20170;-83
2022/12/29 06:55:50;;;;;;;109.30;42.93;;;;;;;-141.97;86.53;47686.31;5036579;28;20519;-82
2022/12/29 06:58:15;;;;;;;100.83;43.83;;;;;;;-141.97;87.06;47803.56;5036215;28;20178;-82
2022/12/29 07:00:41;;;;;;;95.50;41.93;;;;;;;-141.97;87.18;47784.34;5013615;28;20171;-82
2022/12/29 07:03:06;;;;;;;149.30;53.83;;;;;;;-141.97;87.88;47715.13;5033975;28;20246;-85
2022/12/29 07:05:32;;;;;;;122.27;47.67;;;;;;;-141.97;88.77;47820.84;5034423;28;20202;-81
2022/12/29 07:07:58;;;;;;;190.43;70.97;;;;;;;-141.97;90.85;47707.44;5034961;28;20174;-81
2022/12/29 07:10:23;;;;;;;116.43;47.53;;;;;;;-141.97;92.01;47732.44;5034133;28;20159;-83
2022/12/29 07:12:49;;;;;;;150.80;65.57;;;;;;;-141.97;93.45;47765.09;5032860;28;20185;-83
2022/12/29 07:15:14;;;;;;;133.50;55.07;;;;;;;-141.97;93.43;47718.97;5034111;28;20192;-83
2022/12/29 07:17:40;;;;;;;95.70;33.17;;;;;;;-141.97;94.15;47768.94;5033921;28;20213;-83
2022/12/29 07:20:06;;;;;;;92.37;34.67;;;;;;;-141.97;95.22;47836.22;5034601;28;20285;-82
2022/12/29 07:22:32;;;;;;;87.90;30.70;;;;;;;-141.97;97.39;47807.41;5017452;28;20185;-84
2022/12/29 07:24:57;;;;;;;91.67;33.07;;;;;;;-141.97;100.00;47792.03;5042940;28;20468;-84
2022/12/29 07:27:22;;;;;;;138.20;36.83;;;;;;;-141.97;100.00;47745.88;5050503;28;20186;-86
2022/12/29 07:29:48;;;;;;;122.70;42.20;;;;;;;-141.97;100.00;47751.66;5054943;28;20170;-82
2022/12/29 07:32:14;;;;;;;116.43;42.00;;;;;;;-141.97;100.00;47780.47;5058210;28;20188;-82
2022/12/29 07:34:39;;;;;;;128.73;40.97;;;;;;;-141.97;100.00;47734.34;5052875;28;20194;-83
2022/12/29 07:37:05;;;;;;;107.23;43.00;;;;;;;-141.97;100.00;47807.41;5040558;28;20233;-84
2022/12/29 07:39:30;;;;;;;125.20;46.50;;;;;;;-141.97;100.00;47817.00;5024682;28;20634;-84
2022/12/29 07:41:56;;;;;;;140.70;38.93;;;;;;;-141.97;100.00;47726.66;5015634;28;20174;-84
2022/12/29 07:44:21;;;;;;;121.20;42.23;;;;;;;-141.97;100.00;47747.81;5015844;28;20170;-85
2022/12/29 07:46:47;;;;;;;234.07;93.40;;;;;;;-141.97;100.00;47694.00;5026336;28;20162;-84
2022/12/29 07:49:12;;;;;;;127.67;47.37;;;;;;;-141.97;100.00;47738.19;5031703;28;20170;-84
2022/12/29 07:51:37;;;;;;;242.27;78.13;;;;;;;-141.97;100.00;47768.94;5036411;28;20175;-85
2022/12/29 07:54:03;;;;;;;185.60;52.97;;;;;;;-141.97;100.00;47751.66;5038903;28;20166;-83
2022/12/29 07:56:28;;;;;;;138.67;49.50;;;;;;;-141.97;100.00;47697.84;5020806;28;20223;-84
2022/12/29 07:58:54;;;;;;;100.33;39.13;;;;;;;-141.97;100.00;47776.63;5016251;28;20161;-84
2022/12/29 08:01:20;;;;;;;159.20;53.07;;;;;;;-141.97;100.00;47770.88;5017082;28;20166;-83
2022/12/29 08:03:45;;;;;;;180.97;53.20;;;;;;;-141.97;100.00;47724.75;5032300;28;20566;-83
2022/12/29 08:06:11;;;;;;;112.10;43.67;;;;;;;-141.97;100.00;47722.81;5036273;28;20459;-87
2022/12/29 08:08:37;;;;;;;124.67;41.27;;;;;;;-141.97;100.00;47770.88;5018433;28;20166;-84
2022/12/29 08:11:03;;;;;;;116.50;41.80;;;;;;;-141.97;100.00;47826.63;5042848;28;20156;-84
2022/12/29 08:13:28;;;;;;;149.23;46.07;;;;;;;-141.97;100.00;47849.69;5020769;28;20514;-86
2022/12/29 08:15:54;;;;;;;136.60;49.77;;;;;;;-141.97;100.00;47776.63;5037453;28;20625;-84
2022/12/29 08:18:19;;;;;;;131.50;47.37;;;;;;;-141.97;100.00;47778.56;5036634;28;20251;-84
2022/12/29 08:20:45;;;;;;;135.23;53.37;;;;;;;-141.97;100.00;47757.41;5019992;28;20170;-89
2022/12/29 08:23:10;;;;;;;157.57;61.70;;;;;;;-141.97;100.00;47749.72;5037280;28;20652;-86
2022/12/29 08:25:35;;;;;;;166.43;64.67;;;;;;;-141.97;95.93;47901.59;5037713;28;20194;-88
2022/12/29 08:28:01;;;;;;;173.13;67.33;;;;;;;-141.97;92.07;47724.75;5034450;28;20182;-85
2022/12/29 08:30:27;;;;;;;162.93;65.77;;;;;;;-141.97;87.30;47726.66;5035996;28;20162;-84
2022/12/29 08:32:52;;;;;;;155.87;63.57;;;;;;;-141.97;83.15;47780.47;5036260;28;20218;-85
2022/12/29 08:35:17;;;;;;;195.70;87.67;;;;;;;-141.97;82.50;47809.31;5034066;28;20166;-84
2022/12/29 08:37:43;;;;;;;165.63;75.23;;;;;;;-141.97;79.94;47830.47;5032045;28;20279;-81
2022/12/29 08:40:09;;;;;;;144.97;64.67;;;;;;;-141.97;78.16;47734.34;5026593;28;20638;-81
2022/12/29 08:42:34;;;;;;;113.77;52.40;;;;;;;-141.97;77.29;47780.47;5033186;28;20630;-83
2022/12/29 08:45:00;;;;;;;114.03;48.67;;;;;;;-141.97;75.30;47751.66;5033659;28;20209;-83
2022/12/29 08:47:26;;;;;;;105.93;46.90;;;;;;;-141.97;73.82;47699.75;5033454;28;20162;-83
2022/12/29 08:49:52;;;;;;;95.90;42.03;;;;;;;-141.97;73.49;47820.84;5032293;28;20565;-82
2022/12/29 08:52:17;;;;;;;89.57;42.03;;;;;;;-141.97;72.70;47803.56;5033964;28;20162;-81
2022/12/29 08:54:43;;;;;;;90.53;40.47;;;;;;;-141.97;72.73;47761.25;5033496;28;20162;-82
2022/12/29 08:57:08;;;;;;;80.30;37.83;;;;;;;-141.97;71.69;47765.09;5032219;28;20170;-82
2022/12/29 08:59:34;;;;;;;68.50;33.07;;;;;;;-141.97;70.67;47765.09;5032978;28;20532;-84
2022/12/29 09:02:00;;;;;;;53.57;27.30;;;;;;;-141.97;70.16;47870.81;5032865;28;20580;-82
2022/12/29 09:04:27;;;;;;;58.97;28.33;;;;;;;-141.97;70.21;47811.25;5032885;28;20158;-81
2022/12/29 09:06:52;;;;;;;54.80;28.00;;;;;;;-141.97;70.01;47822.78;5032587;28;20154;-82
2022/12/29 09:09:18;;;;;;;52.20;25.00;;;;;;;-141.97;68.69;47742.03;5019306;28;20198;-81
2022/12/29 09:11:44;;;;;;;48.30;25.30;;;;;;;-141.97;68.67;47786.25;5012528;28;20173;-81
2022/12/29 09:14:09;;;;;;;47.93;23.27;;;;;;;-141.97;67.99;47793.94;5012812;28;20171;-81
2022/12/29 09:16:35;;;;;;;45.33;22.20;;;;;;;-141.97;68.68;47824.69;5012204;28;20199;-81
2022/12/29 09:19:01;;;;;;;42.47;22.17;;;;;;;-141.97;67.76;47690.16;5012623;28;20261;-81
2022/12/29 09:21:26;;;;;;;46.33;23.43;;;;;;;-141.97;66.76;47742.03;5014681;28;20245;-80
2022/12/29 09:23:52;;;;;;;45.40;23.70;;;;;;;-141.97;67.93;47732.44;5021165;28;20579;-81
2022/12/29 09:26:17;;;;;;;46.13;23.03;;;;;;;-141.97;67.55;47820.84;5031455;28;20204;-81
2022/12/29 09:28:44;;;;;;;49.03;25.27;;;;;;;-141.97;67.51;47728.59;5032011;28;20169;-81
2022/12/29 09:31:10;;;;;;;48.50;25.67;;;;;;;-141.97;66.02;47763.19;5032108;28;20161;-81
2022/12/29 09:33:36;;;;;;;51.10;27.27;;;;;;;-141.97;64.62;47784.34;5027834;28;20174;-81
2022/12/29 09:36:02;;;;;;;46.73;23.67;;;;;;;-141.97;64.60;47765.09;5018539;28;20668;-81
2022/12/29 09:38:28;;;;;;;51.63;26.53;;;;;;;-141.97;64.34;47799.72;5015211;28;20309;-81
2022/12/29 09:40:59;;;;;;;47.53;26.87;;;;;;;-141.97;63.47;47765.09;4993119;28;20598;-81
2022/12/29 09:43:27;;;;;;;49.30;26.50;;;;;;;-141.97;62.74;47761.25;5012302;28;20166;-81
2022/12/29 09:46:17;;;;;;;56.93;29.57;;;;;;;-141.97;63.15;47738.19;5012094;28;20198;-80
2022/12/29 09:48:47;;;;;;;54.20;28.60;;;;;;;-141.97;63.62;47772.78;5012216;28;20194;-81
2022/12/29 09:51:21;;;;;;;52.57;26.87;;;;;;;-141.97;62.40;47788.19;5012056;28;20301;-81
2022/12/29 09:53:56;;;;;;;39.87;22.07;;;;;;;-141.97;61.07;47770.88;5012055;28;20182;-81
2022/12/29 09:56:24;;;;;;;37.67;19.57;;;;;;;-141.97;60.61;47732.44;5007309;28;20171;-81
2022/12/29 09:59:14;;;;;;;39.20;21.87;;;;;;;-141.97;60.06;47745.88;5013414;28;20177;-80
2022/12/29 10:02:03;;;;;;;34.30;19.67;;;;;;;-141.97;59.25;47757.41;4994041;28;20562;-81
2022/12/29 10:04:28;;;;;;;47.13;25.27;;;;;;;-141.97;59.83;47784.34;4992341;28;20172;-81
2022/12/29 10:07:00;;;;;;;50.00;27.47;;;;;;;-141.97;60.11;47738.19;5012042;28;20197;-80
2022/12/29 10:09:38;;;;;;;44.97;24.87;;;;;;;-141.97;59.94;47768.94;5010519;28;20162;-80
2022/12/29 10:12:37;;;;;;;82.17;37.93;;;;;;;-141.97;59.52;47778.56;5010003;28;20174;-81
2022/12/29 10:15:14;;;;;;;47.43;24.17;;;;;;;-141.97;60.48;47738.19;5011707;28;20238;-82
2022/12/29 10:17:47;;;;;;;32.77;18.07;;;;;;;-141.97;59.21;47776.63;5011731;28;20162;-81
2022/12/29 10:20:38;;;;;;;35.10;19.17;;;;;;;-141.97;59.42;47749.72;5012076;28;20186;-83
2022/12/29 10:23:15;;;;;;;33.80;18.80;;;;;;;-141.97;59.94;47770.88;5011800;28;20548;-80
2022/12/29 10:25:43;;;;;;;37.17;18.10;;;;;;;-141.97;59.63;47715.13;5011308;28;20198;-81
2022/12/29 10:28:39;;;;;;;36.83;18.40;;;;;;;-141.97;59.82;47751.66;5011418;28;20652;-81
2022/12/29 10:31:16;;;;;;;36.60;17.57;;;;;;;-141.97;59.72;47747.81;4989799;28;20526;-81
2022/12/29 10:33:43;;;;;;;32.67;16.97;;;;;;;-141.97;59.82;47757.41;4989832;28;20159;-81
2022/12/29 10:36:17;;;;;;;33.23;17.97;;;;;;;-141.97;59.18;47738.19;4989585;28;20253;-83
2022/12/29 10:38:53;;;;;;;32.57;17.87;;;;;;;-141.97;58.35;47718.97;4988411;28;20325;-84
2022/12/29 10:41:27;;;;;;;32.80;17.87;;;;;;;-141.97;59.01;47761.25;4988751;28;20187;-84
2022/12/29 10:43:54;;;;;;;31.70;18.97;;;;;;;-141.97;58.91;47747.81;4972756;28;20302;-84
2022/12/29 10:46:34;;;;;;;31.70;18.07;;;;;;;-141.97;58.73;47738.19;4989153;28;20274;-83
2022/12/29 10:49:01;;;;;;;40.23;21.73;;;;;;;-141.97;58.38;47751.66;5001529;28;20222;-82
2022/12/29 10:51:35;;;;;;;40.10;22.27;;;;;;;-141.97;58.24;47747.81;4991710;28;20171;-84
2022/12/29 10:54:10;;;;;;;31.00;17.47;;;;;;;-141.97;58.58;47730.50;4989601;28;20303;-84
2022/12/29 10:56:44;;;;;;;30.30;17.20;;;;;;;-141.97;58.99;47728.59;4989029;28;20167;-82
2022/12/29 10:59:17;;;;;;;33.17;18.00;;;;;;;-141.97;58.63;47749.72;4988186;28;20668;-80
2022/12/29 11:02:04;;;;;;;34.27;19.23;;;;;;;-141.97;58.86;47765.09;4987922;28;20277;-79
2022/12/29 11:04:47;;;;;;;40.87;19.83;;;;;;;-141.97;58.34;47799.72;4987958;28;20179;-78
2022/12/29 11:07:17;;;;;;;37.37;20.93;;;;;;;-141.97;58.30;47690.16;4970991;28;20192;-81
2022/12/29 11:09:44;;;;;;;43.03;21.53;;;;;;;-141.97;58.33;47761.25;4972418;28;20172;-80
2022/12/29 11:12:18;;;;;;;33.73;19.60;;;;;;;-141.97;57.92;47742.03;4972076;28;20228;-79
2022/12/29 11:14:44;;;;;;;36.67;18.90;;;;;;;-141.97;57.69;47740.13;4972001;28;20194;-79
2022/12/29 11:17:15;;;;;;;35.30;19.13;;;;;;;-141.97;58.91;47755.50;4971541;28;20692;-78
2022/12/29 11:19:41;;;;;;;33.70;17.93;;;;;;;-141.97;58.89;47726.66;4973284;28;20190;-80
2022/12/29 11:22:28;;;;;;;36.30;18.80;;;;;;;-141.97;58.63;47765.09;4975650;28;20626;-79
2022/12/29 11:25:04;;;;;;;36.97;18.33;;;;;;;-141.97;59.08;47738.19;4975145;28;20210;-79
2022/12/29 11:27:30;;;;;;;41.87;20.70;;;;;;;-141.97;58.18;47680.53;4976014;28;20182;-79
2022/12/29 11:29:55;;;;;;;37.30;20.43;;;;;;;-141.97;58.06;47740.13;4974722;28;20212;-80
2022/12/29 11:32:26;;;;;;;40.23;21.30;;;;;;;-141.97;57.94;47703.59;4974197;28;20625;-80
2022/12/29 11:34:52;;;;;;;42.60;22.50;;;;;;;-141.97;58.63;47726.66;4974190;28;20168;-79
2022/12/29 11:37:18;;;;;;;49.77;26.27;;;;;;;-141.97;58.45;47738.19;4980160;28;20237;-79
2022/12/29 11:39:59;;;;;;;50.60;29.07;;;;;;;-141.97;57.91;47784.34;4996001;28;20183;-80